createdAt,value
2019-01-30T00:01:29.158Z,67.47
2019-01-30T00:03:58.910Z,67.50
2019-01-30T00:06:28.692Z,67.60
2019-01-30T00:08:58.400Z,67.47
2019-01-30T00:11:28.178Z,62.47
2019-01-30T00:13:57.934Z,58.10
2019-01-30T00:16:27.681Z,54.30
2019-01-30T00:18:57.497Z,57.07
2019-01-30T00:21:27.194Z,56.17
2019-01-30T00:23:57.055Z,58.00
2019-01-30T00:26:26.727Z,56.47
2019-01-30T00:28:56.470Z,60.00
2019-01-30T00:31:26.410Z,60.27
2019-01-30T00:33:56.130Z,63.97
2019-01-30T00:36:25.968Z,62.27
2019-01-30T00:38:56.247Z,55.70
2019-01-30T00:41:26.160Z,61.23
2019-01-30T00:43:56.014Z,71.03
2019-01-30T00:46:25.753Z,50.63
2019-01-30T00:48:55.469Z,60.60
2019-01-30T00:51:25.236Z,53.23
2019-01-30T00:53:55.044Z,56.77
2019-01-30T00:56:24.854Z,56.93
2019-01-30T00:58:54.802Z,53.03
2019-01-30T01:01:24.716Z,58.53
2019-01-30T01:03:54.692Z,55.47
2019-01-30T01:06:24.361Z,61.10
2019-01-30T01:08:54.214Z,57.47
2019-01-30T01:11:24.124Z,58.03
2019-01-30T01:13:54.079Z,62.23
2019-01-30T01:16:24.066Z,58.83
2019-01-30T01:18:53.786Z,58.60
2019-01-30T01:21:23.498Z,59.47
2019-01-30T01:23:53.317Z,53.23
2019-01-30T01:26:23.212Z,58.87
2019-01-30T01:28:52.938Z,69.33
2019-01-30T01:31:22.748Z,63.37
2019-01-30T01:33:52.559Z,60.70
2019-01-30T01:36:22.430Z,58.27
2019-01-30T01:38:52.465Z,63.20
2019-01-30T01:41:22.326Z,59.03
2019-01-30T01:43:52.143Z,56.90
2019-01-30T01:46:21.857Z,62.17
2019-01-30T01:48:51.959Z,56.37
2019-01-30T01:51:22.095Z,52.97
2019-01-30T01:53:52.015Z,56.67
2019-01-30T01:56:21.794Z,66.77
2019-01-30T01:58:51.679Z,64.23
2019-01-30T02:01:21.324Z,55.30
2019-01-30T02:03:51.174Z,50.03
2019-01-30T02:06:20.836Z,69.27
2019-01-30T02:08:50.709Z,54.63
2019-01-30T02:11:20.543Z,63.80
2019-01-30T02:13:50.204Z,59.30
2019-01-30T02:16:19.967Z,62.43
2019-01-30T02:18:49.791Z,51.73
2019-01-30T02:21:19.660Z,62.07
2019-01-30T02:23:49.471Z,52.70
2019-01-30T02:26:19.183Z,56.97
2019-01-30T02:28:48.978Z,59.30
2019-01-30T02:31:18.743Z,55.83
2019-01-30T02:33:48.415Z,56.53
2019-01-30T02:36:18.115Z,52.07
2019-01-30T02:38:48.910Z,55.50
2019-01-30T02:41:18.697Z,59.95
2019-01-30T02:43:54.923Z,55.73
2019-01-30T02:46:24.694Z,51.03
2019-01-30T02:48:54.620Z,54.13
2019-01-30T02:51:24.413Z,51.10
2019-01-30T02:53:54.477Z,55.27
2019-01-30T02:56:24.349Z,50.83
2019-01-30T02:58:54.598Z,51.60
2019-01-30T03:01:24.428Z,54.50
2019-01-30T03:03:54.217Z,56.80
2019-01-30T03:06:23.858Z,51.80
2019-01-30T03:08:53.638Z,54.63
2019-01-30T03:11:25.278Z,54.03
2019-01-30T03:13:55.584Z,57.40
2019-01-30T03:16:25.966Z,42.83
2019-01-30T03:18:56.067Z,50.97
2019-01-30T03:21:26.397Z,49.60
2019-01-30T03:23:56.544Z,55.33
2019-01-30T03:26:26.389Z,54.10
2019-01-30T03:28:56.235Z,44.87
2019-01-30T03:31:26.052Z,48.00
2019-01-30T03:33:55.843Z,52.83
2019-01-30T03:36:25.661Z,50.00
2019-01-30T03:38:55.751Z,42.43
2019-01-30T03:41:25.540Z,47.93
2019-01-30T03:43:55.650Z,45.90
2019-01-30T03:46:25.412Z,46.37
2019-01-30T03:48:55.047Z,53.87
2019-01-30T03:51:24.915Z,48.67
2019-01-30T03:53:54.727Z,53.73
2019-01-30T03:56:24.372Z,48.60
2019-01-30T03:58:54.116Z,44.30
2019-01-30T04:01:26.719Z,45.03
2019-01-30T04:03:55.571Z,46.10
2019-01-30T04:06:25.254Z,47.43
2019-01-30T04:08:55.063Z,47.03
2019-01-30T04:11:34.565Z,44.57
2019-01-30T04:14:04.361Z,44.20
2019-01-30T04:16:34.107Z,44.07
2019-01-30T04:19:03.835Z,53.57
2019-01-30T04:21:39.904Z,50.30
2019-01-30T04:24:09.772Z,50.30
2019-01-30T04:26:39.569Z,45.90
2019-01-30T04:29:09.360Z,47.50
2019-01-30T04:31:39.081Z,52.27
2019-01-30T04:34:08.688Z,48.23
2019-01-30T04:36:38.477Z,55.03
2019-01-30T04:39:08.284Z,49.97
2019-01-30T04:41:38.265Z,43.67
2019-01-30T04:44:08.086Z,51.27
2019-01-30T04:46:37.964Z,49.00
2019-01-30T04:49:08.445Z,47.37
2019-01-30T04:51:38.286Z,44.40
2019-01-30T04:54:07.998Z,51.93
2019-01-30T04:56:37.873Z,50.50
2019-01-30T04:59:07.724Z,44.50
2019-01-30T05:01:49.248Z,47.67
2019-01-30T05:04:09.156Z,45.60
2019-01-30T05:06:38.894Z,52.50
2019-01-30T05:09:09.223Z,42.90
2019-01-30T05:11:38.851Z,52.17
2019-01-30T05:14:08.693Z,52.77
2019-01-30T05:16:38.436Z,43.70
2019-01-30T05:19:08.172Z,44.10
2019-01-30T05:21:38.073Z,46.50
2019-01-30T05:24:07.891Z,43.50
2019-01-30T05:26:38.140Z,49.80
2019-01-30T05:29:08.621Z,43.87
2019-01-30T05:31:38.403Z,44.87
2019-01-30T05:34:10.172Z,45.57
2019-01-30T05:36:42.296Z,45.43
2019-01-30T05:39:12.422Z,45.07
2019-01-30T05:41:42.284Z,45.20
2019-01-30T05:44:12.081Z,40.30
2019-01-30T05:46:41.680Z,44.53
2019-01-30T05:49:11.460Z,43.13
2019-01-30T05:51:41.241Z,48.67
2019-01-30T05:54:10.985Z,47.30
2019-01-30T05:56:40.743Z,42.63
2019-01-30T05:59:11.063Z,47.17
2019-01-30T06:01:42.045Z,51.33
2019-01-30T06:04:23.502Z,47.73
2019-01-30T06:06:55.905Z,48.50
2019-01-30T06:09:25.897Z,45.17
2019-01-30T06:11:55.943Z,54.03
2019-01-30T06:14:37.223Z,44.37
2019-01-30T06:17:09.785Z,39.20
2019-01-30T06:19:40.297Z,49.15
2019-01-30T06:22:16.708Z,52.50
2019-01-30T06:24:46.967Z,48.20
2019-01-30T06:27:17.684Z,37.63
2019-01-30T06:29:47.976Z,40.23
2019-01-30T06:32:21.872Z,47.50
2019-01-30T06:34:50.178Z,52.60
2019-01-30T06:37:20.704Z,45.50
2019-01-30T06:39:51.457Z,48.97
2019-01-30T06:42:21.835Z,46.03
2019-01-30T06:44:52.106Z,39.10
2019-01-30T06:47:22.554Z,44.90
2019-01-30T06:49:52.785Z,44.23
2019-01-30T06:52:23.966Z,39.10
2019-01-30T06:54:54.947Z,43.53
2019-01-30T06:57:25.875Z,41.87
2019-01-30T06:59:56.103Z,37.03
2019-01-30T07:02:32.391Z,39.10
2019-01-30T07:04:59.803Z,38.20
2019-01-30T07:07:30.302Z,41.13
2019-01-30T07:10:00.827Z,39.90
2019-01-30T07:12:31.282Z,39.40
2019-01-30T07:15:01.942Z,46.97
2019-01-30T07:17:32.092Z,40.53
2019-01-30T07:20:02.110Z,37.37
2019-01-30T07:22:33.293Z,38.60
2019-01-30T07:25:04.093Z,37.70
2019-01-30T07:27:36.649Z,38.57
2019-01-30T07:30:12.574Z,40.23
2019-01-30T07:32:42.627Z,38.60
2019-01-30T07:35:12.397Z,37.57
2019-01-30T07:37:42.542Z,34.10
2019-01-30T07:40:14.817Z,36.03
2019-01-30T07:42:44.755Z,37.87
2019-01-30T07:45:17.348Z,35.43
2019-01-30T07:47:47.051Z,37.07
2019-01-30T07:50:16.678Z,35.60
2019-01-30T07:52:46.523Z,32.77
2019-01-30T07:55:17.109Z,33.03
2019-01-30T07:57:47.008Z,32.57
2019-01-30T08:00:25.364Z,30.53
2019-01-30T08:02:55.148Z,33.73
2019-01-30T08:05:25.004Z,31.10
2019-01-30T08:07:54.980Z,30.53
2019-01-30T08:10:24.816Z,31.37
2019-01-30T08:12:54.734Z,30.60
2019-01-30T08:15:25.026Z,32.97
2019-01-30T08:17:55.112Z,29.77
2019-01-30T08:20:24.849Z,34.70
2019-01-30T08:22:54.823Z,27.53
2019-01-30T08:25:25.030Z,23.50
2019-01-30T08:27:54.955Z,31.33
2019-01-30T08:30:27.484Z,30.07
2019-01-30T08:33:04.881Z,32.00
2019-01-30T08:35:30.691Z,30.00
2019-01-30T08:38:00.658Z,29.77
2019-01-30T08:40:30.366Z,28.43
2019-01-30T08:43:00.150Z,26.87
2019-01-30T08:45:30.873Z,28.03
2019-01-30T08:48:01.066Z,28.17
2019-01-30T08:50:31.235Z,30.63
2019-01-30T08:53:01.140Z,29.67
2019-01-30T08:55:31.234Z,30.67
2019-01-30T08:58:01.177Z,29.97
2019-01-30T09:00:31.216Z,29.80
2019-01-30T09:03:01.337Z,26.57
2019-01-30T09:05:31.234Z,26.37
2019-01-30T09:08:01.184Z,25.67
2019-01-30T09:10:31.134Z,30.53
2019-01-30T09:13:01.538Z,24.30
2019-01-30T09:15:31.782Z,26.90
2019-01-30T09:18:01.894Z,27.70
2019-01-30T09:20:32.366Z,28.60
2019-01-30T09:23:02.173Z,31.20
2019-01-30T09:25:32.549Z,34.97
2019-01-30T09:28:02.849Z,31.93
2019-01-30T09:30:36.187Z,24.63
2019-01-30T09:33:07.764Z,32.47
2019-01-30T09:35:37.940Z,25.83
2019-01-30T09:38:07.652Z,31.30
2019-01-30T09:40:37.343Z,25.53
2019-01-30T09:43:07.424Z,23.93
2019-01-30T09:45:37.792Z,26.50
2019-01-30T09:48:07.669Z,28.33
2019-01-30T09:50:37.460Z,23.23
2019-01-30T09:53:07.339Z,25.07
2019-01-30T09:55:37.158Z,21.00
2019-01-30T09:58:07.171Z,26.27
2019-01-30T10:00:38.515Z,24.43
2019-01-30T10:03:08.432Z,30.87
2019-01-30T10:05:38.565Z,22.50
2019-01-30T10:08:08.323Z,24.13
2019-01-30T10:10:42.040Z,25.30
2019-01-30T10:13:12.103Z,29.67
2019-01-30T10:15:43.946Z,27.43
2019-01-30T10:18:14.856Z,20.07
2019-01-30T10:20:48.448Z,24.13
2019-01-30T10:23:18.332Z,22.10
2019-01-30T10:25:48.121Z,20.53
2019-01-30T10:28:17.997Z,16.27
2019-01-30T10:30:48.494Z,20.70
2019-01-30T10:33:19.851Z,16.23
2019-01-30T10:35:49.904Z,18.30
2019-01-30T10:38:19.671Z,16.63
2019-01-30T10:40:50.221Z,17.07
2019-01-30T10:43:20.180Z,18.73
2019-01-30T10:45:50.335Z,16.43
2019-01-30T10:48:20.313Z,29.93
2019-01-30T10:50:50.296Z,43.70
2019-01-30T10:53:20.074Z,17.03
2019-01-30T10:55:49.703Z,16.53
2019-01-30T10:58:19.720Z,22.33
2019-01-30T11:00:51.106Z,16.87
2019-01-30T11:03:21.113Z,27.53
2019-01-30T11:05:50.938Z,20.67
2019-01-30T11:08:20.994Z,18.30
2019-01-30T11:10:51.108Z,14.70
2019-01-30T11:13:21.193Z,24.97
2019-01-30T11:15:51.272Z,14.43
2019-01-30T11:18:21.698Z,17.80
2019-01-30T11:20:51.562Z,16.37
2019-01-30T11:23:21.284Z,16.70
2019-01-30T11:25:51.120Z,21.20
2019-01-30T11:28:21.282Z,14.13
2019-01-30T11:30:50.970Z,17.43
2019-01-30T11:33:21.421Z,18.00
2019-01-30T11:35:51.356Z,22.70
2019-01-30T11:38:21.310Z,24.57
2019-01-30T11:40:51.267Z,23.47
2019-01-30T11:43:20.974Z,18.40
2019-01-30T11:45:50.942Z,16.70
2019-01-30T11:48:20.854Z,17.90
2019-01-30T11:50:50.689Z,16.87
2019-01-30T11:53:20.527Z,17.20
2019-01-30T11:55:50.581Z,21.20
2019-01-30T11:58:20.195Z,19.63
2019-01-30T12:00:51.973Z,20.47
2019-01-30T12:03:21.825Z,15.60
2019-01-30T12:05:51.698Z,13.27
2019-01-30T12:08:21.806Z,14.90
2019-01-30T12:10:51.782Z,13.67
2019-01-30T12:13:21.635Z,14.40
2019-01-30T12:15:51.472Z,16.23
2019-01-30T12:18:21.634Z,15.63
2019-01-30T12:20:51.913Z,17.07
2019-01-30T12:23:22.043Z,11.47
2019-01-30T12:25:52.413Z,13.40
2019-01-30T12:28:22.438Z,9.70
2019-01-30T12:30:52.344Z,17.57
2019-01-30T12:33:22.131Z,15.77
2019-01-30T12:35:52.065Z,13.77
2019-01-30T12:38:21.910Z,13.67
2019-01-30T12:40:51.756Z,12.40
2019-01-30T12:43:21.990Z,14.13
2019-01-30T12:45:52.075Z,12.93
2019-01-30T12:48:21.876Z,11.47
2019-01-30T12:50:51.793Z,13.57
2019-01-30T12:53:21.690Z,12.80
2019-01-30T12:55:51.564Z,11.67
2019-01-30T12:58:21.861Z,14.87
2019-01-30T13:00:53.836Z,12.57
2019-01-30T13:03:23.969Z,12.37
2019-01-30T13:05:54.154Z,13.50
2019-01-30T13:08:24.080Z,10.53
2019-01-30T13:10:54.042Z,9.07
2019-01-30T13:13:23.902Z,12.90
2019-01-30T13:15:53.991Z,15.17
2019-01-30T13:18:23.831Z,14.07
2019-01-30T13:20:54.003Z,13.13
2019-01-30T13:23:24.305Z,10.93
2019-01-30T13:25:54.345Z,10.47
2019-01-30T13:28:24.187Z,9.63
2019-01-30T13:30:53.986Z,13.23
2019-01-30T13:33:23.885Z,17.87
2019-01-30T13:35:53.969Z,12.37
2019-01-30T13:38:23.879Z,14.97
2019-01-30T13:40:53.894Z,11.53
2019-01-30T13:43:23.724Z,11.17
2019-01-30T13:45:53.546Z,17.47
2019-01-30T13:48:23.408Z,14.13
2019-01-30T13:50:53.776Z,12.13
2019-01-30T13:53:23.600Z,11.37
2019-01-30T13:55:53.467Z,12.60
2019-01-30T13:58:23.234Z,11.47
2019-01-30T14:00:52.999Z,12.17
2019-01-30T14:03:23.097Z,13.73
2019-01-30T14:05:52.943Z,12.07
2019-01-30T14:08:22.550Z,12.63
2019-01-30T14:10:52.615Z,12.33
2019-01-30T14:13:22.627Z,10.93
2019-01-30T14:15:52.648Z,11.50
2019-01-30T14:18:27.171Z,10.33
2019-01-30T14:20:57.178Z,9.67
2019-01-30T14:23:27.283Z,13.33
2019-01-30T14:25:57.164Z,9.83
2019-01-30T14:28:26.975Z,11.93
2019-01-30T14:30:56.784Z,9.93
2019-01-30T14:33:26.790Z,14.90
2019-01-30T14:35:57.473Z,11.33
2019-01-30T14:38:27.174Z,8.80
2019-01-30T14:40:57.288Z,11.20
2019-01-30T14:43:27.411Z,12.20
2019-01-30T14:45:57.371Z,9.10
2019-01-30T14:48:26.975Z,10.30
2019-01-30T14:50:56.802Z,8.40
2019-01-30T14:53:26.949Z,6.47
2019-01-30T14:55:56.696Z,12.47
2019-01-30T14:58:26.534Z,9.63
2019-01-30T15:00:56.484Z,10.33
2019-01-30T15:03:26.480Z,11.37
2019-01-30T15:05:56.609Z,10.13
2019-01-30T15:08:26.543Z,14.80
2019-01-30T15:10:56.433Z,12.60
2019-01-30T15:13:26.583Z,10.47
2019-01-30T15:15:56.598Z,11.67
2019-01-30T15:18:26.624Z,10.63
2019-01-30T15:20:56.599Z,10.47
2019-01-30T15:23:28.531Z,12.17
2019-01-30T15:25:58.570Z,13.83
2019-01-30T15:28:28.863Z,8.53
2019-01-30T15:30:59.097Z,11.83
2019-01-30T15:33:29.162Z,11.63
2019-01-30T15:35:59.124Z,15.90
2019-01-30T15:38:29.346Z,13.33
2019-01-30T15:40:59.187Z,13.50
2019-01-30T15:43:28.996Z,13.60
2019-01-30T15:45:58.885Z,12.83
2019-01-30T15:48:28.914Z,9.83
2019-01-30T15:50:59.167Z,9.80
2019-01-30T15:53:29.240Z,12.37
2019-01-30T15:55:59.157Z,15.23
2019-01-30T15:58:28.866Z,15.20
2019-01-30T16:01:02.046Z,15.43
2019-01-30T16:03:31.769Z,14.47
2019-01-30T16:06:01.829Z,15.03
2019-01-30T16:08:31.597Z,11.03
2019-01-30T16:11:01.405Z,11.93
2019-01-30T16:13:31.805Z,12.53
2019-01-30T16:16:03.499Z,14.73
2019-01-30T16:18:33.316Z,12.63
2019-01-30T16:21:03.184Z,13.67
2019-01-30T16:23:32.994Z,12.77
2019-01-30T16:26:03.209Z,15.63
2019-01-30T16:28:33.129Z,14.43
2019-01-30T16:31:02.940Z,15.57
2019-01-30T16:33:32.726Z,11.37
2019-01-30T16:36:02.536Z,14.73
2019-01-30T16:38:32.189Z,16.37
2019-01-30T16:41:05.197Z,19.83
2019-01-30T16:43:35.065Z,14.20
2019-01-30T16:46:04.855Z,21.40
2019-01-30T16:48:34.706Z,17.63
2019-01-30T16:51:04.508Z,12.73
2019-01-30T16:53:34.506Z,12.50
2019-01-30T16:56:04.209Z,12.93
2019-01-30T16:58:36.453Z,16.93
2019-01-30T17:01:06.331Z,12.20
2019-01-30T17:03:36.140Z,16.23
2019-01-30T17:06:07.426Z,13.67
2019-01-30T17:08:37.628Z,15.83
2019-01-30T17:11:07.490Z,15.10
2019-01-30T17:13:37.330Z,11.93
2019-01-30T17:16:07.165Z,19.63
2019-01-30T17:18:36.953Z,18.57
2019-01-30T17:21:07.018Z,17.17
2019-01-30T17:23:38.063Z,15.33
2019-01-30T17:26:07.776Z,16.27
2019-01-30T17:28:37.665Z,23.03
2019-01-30T17:31:07.810Z,18.83
2019-01-30T17:33:37.580Z,13.77
2019-01-30T17:36:17.873Z,16.63
2019-01-30T17:38:38.891Z,16.67
2019-01-30T17:41:08.890Z,19.23
2019-01-30T17:43:38.674Z,18.63
2019-01-30T17:46:08.555Z,18.47
2019-01-30T17:48:38.604Z,21.20
2019-01-30T17:51:08.334Z,16.53
2019-01-30T17:53:38.126Z,19.93
2019-01-30T17:56:08.027Z,18.23
2019-01-30T17:58:38.028Z,22.93
2019-01-30T18:01:07.775Z,16.30
2019-01-30T18:03:37.490Z,23.53
2019-01-30T18:06:10.036Z,18.93
2019-01-30T18:08:40.021Z,20.73
2019-01-30T18:11:10.030Z,20.83
2019-01-30T18:13:39.760Z,21.67
2019-01-30T18:16:09.556Z,21.07
2019-01-30T18:18:39.895Z,20.90
2019-01-30T18:21:09.733Z,23.67
2019-01-30T18:23:39.879Z,23.40
2019-01-30T18:26:10.168Z,18.97
2019-01-30T18:28:40.276Z,23.23
2019-01-30T18:31:10.213Z,21.57
2019-01-30T18:33:41.256Z,21.83
2019-01-30T18:36:11.347Z,25.87
2019-01-30T18:38:42.111Z,20.23
2019-01-30T18:41:13.227Z,26.50
2019-01-30T18:43:45.481Z,20.97
2019-01-30T18:46:14.709Z,23.10
2019-01-30T18:48:44.372Z,23.00
2019-01-30T18:51:15.392Z,26.43
2019-01-30T18:53:45.240Z,28.60
2019-01-30T18:56:15.065Z,29.67
2019-01-30T18:58:45.422Z,32.77
2019-01-30T19:01:15.809Z,23.07
2019-01-30T19:03:45.758Z,21.53
2019-01-30T19:06:15.516Z,27.57
2019-01-30T19:08:45.461Z,17.60
2019-01-30T19:11:15.672Z,26.10
2019-01-30T19:13:45.821Z,28.33
2019-01-30T19:16:16.609Z,25.13
2019-01-30T19:18:48.971Z,29.97
2019-01-30T19:21:18.519Z,23.70
2019-01-30T19:23:48.440Z,23.20
2019-01-30T19:26:18.322Z,33.60
2019-01-30T19:28:48.554Z,28.87
2019-01-30T19:31:18.525Z,23.37
2019-01-30T19:33:49.415Z,63.13
2019-01-30T19:36:19.844Z,65.40
2019-01-30T19:38:49.984Z,40.10
2019-01-30T19:41:19.944Z,22.43
2019-01-30T19:43:53.678Z,26.40
2019-01-30T19:46:23.622Z,23.43
2019-01-30T19:48:53.651Z,27.07
2019-01-30T19:51:23.770Z,28.33
2019-01-30T19:53:54.462Z,25.43
2019-01-30T19:56:24.761Z,21.87
2019-01-30T19:58:55.207Z,29.90
2019-01-30T20:01:35.690Z,24.87
2019-01-30T20:03:57.086Z,26.30
2019-01-30T20:06:27.000Z,24.20
2019-01-30T20:08:56.818Z,23.17
2019-01-30T20:11:26.867Z,35.93
2019-01-30T20:13:56.949Z,27.47
2019-01-30T20:16:26.912Z,22.13
2019-01-30T20:18:56.712Z,24.87
2019-01-30T20:21:29.428Z,25.30
2019-01-30T20:27:13.289Z,24.77
2019-01-30T20:29:43.445Z,22.67
2019-01-30T20:32:13.268Z,21.43
2019-01-30T20:34:46.650Z,24.03
2019-01-30T20:37:25.980Z,19.63
2019-01-30T20:39:49.620Z,22.90
2019-01-30T20:42:19.644Z,21.23
2019-01-30T20:44:51.657Z,23.10
2019-01-30T20:47:21.348Z,22.33
2019-01-30T20:49:51.620Z,22.03
2019-01-30T20:52:21.353Z,23.23
2019-01-30T20:54:59.638Z,22.50
2019-01-30T20:57:23.894Z,26.47
2019-01-30T20:59:53.843Z,26.60
2019-01-30T21:02:23.694Z,24.40
2019-01-30T21:04:53.481Z,26.53
2019-01-30T21:07:23.370Z,27.00
2019-01-30T21:09:53.884Z,27.20
2019-01-30T21:12:24.335Z,24.43
2019-01-30T21:14:54.319Z,29.53
2019-01-30T21:17:24.923Z,30.53
2019-01-30T21:19:54.724Z,35.13
2019-01-30T21:22:24.652Z,27.63
2019-01-30T21:24:54.750Z,32.17
2019-01-30T21:27:25.631Z,29.70
2019-01-30T21:29:55.719Z,26.20
2019-01-30T21:32:25.687Z,27.30
2019-01-30T21:34:55.375Z,34.40
2019-01-30T21:37:25.342Z,24.63
2019-01-30T21:39:55.116Z,25.67
2019-01-30T21:42:24.801Z,28.90
2019-01-30T21:44:55.752Z,30.73
2019-01-30T21:47:25.958Z,26.93
2019-01-30T21:49:55.785Z,28.33
2019-01-30T21:52:25.658Z,24.83
2019-01-30T21:54:55.435Z,28.77
2019-01-30T21:57:25.178Z,31.53
2019-01-30T21:59:54.918Z,26.57
2019-01-30T22:02:24.942Z,28.00
2019-01-30T22:04:54.989Z,23.77
2019-01-30T22:07:24.784Z,30.73
2019-01-30T22:09:54.539Z,28.90
2019-01-30T22:12:24.326Z,35.10
2019-01-30T22:14:54.275Z,32.43
2019-01-30T22:17:38.491Z,29.93
2019-01-30T22:20:26.928Z,25.03
2019-01-30T22:23:13.287Z,25.13
2019-01-30T22:25:59.246Z,26.63
2019-01-30T22:28:45.859Z,29.70
2019-01-30T22:31:31.315Z,27.37
2019-01-30T22:34:14.816Z,32.20
2019-01-30T22:37:07.080Z,29.23
2019-01-30T22:39:48.380Z,23.63
2019-01-30T22:42:27.258Z,29.10
2019-01-30T22:45:02.662Z,28.47
2019-01-30T22:47:37.220Z,31.57
2019-01-30T22:50:10.197Z,23.47
2019-01-30T22:52:40.086Z,28.93
2019-01-30T22:55:12.030Z,22.53
2019-01-30T22:57:41.896Z,31.13
2019-01-30T23:00:53.112Z,30.80
2019-01-30T23:03:28.481Z,29.95
2019-01-30T23:06:16.888Z,31.30
2019-01-30T23:08:52.815Z,26.13
2019-01-30T23:11:42.362Z,27.17
2019-01-30T23:14:12.135Z,23.67
2019-01-30T23:17:01.787Z,27.40
2019-01-30T23:19:46.210Z,27.30
2019-01-30T23:22:37.319Z,30.00
2019-01-30T23:25:27.328Z,24.70
2019-01-30T23:28:01.227Z,25.07
2019-01-30T23:30:52.707Z,29.57
2019-01-30T23:33:34.946Z,31.80
2019-01-30T23:36:11.065Z,25.27
2019-01-30T23:38:50.007Z,25.67
2019-01-30T23:41:28.835Z,23.63
2019-01-30T23:44:02.096Z,24.87
2019-01-30T23:47:09.634Z,30.77
2019-01-30T23:49:45.453Z,29.77
2019-01-30T23:52:48.424Z,26.27
2019-01-30T23:55:42.681Z,26.90
2019-01-30T23:58:32.111Z,30.93
